Terminal Aerodrome Forecast
Issued by NWS

Home | Current Version | Previous Version | Graphics & Text | Print | Product List | Glossary Off
Versions: 1 2 3 4 5 6 7 8 9 10 11 12 13 14 15 16 17 18 19 20 21 22 23 24 25 26 27 28 29 30 31 32 33 34 35

000
FTUS43 KDDC 200645 AAC
TAFGCK
TAF AMD
KGCK 200645Z 2007/2106 04017KT 3SM BR OVC009
     FM200900 02017G27KT P6SM OVC020
     FM201500 01015G25KT P6SM BKN030
     FM201800 02013G23KT P6SM SKC=

USA.gov is the U.S. government's official web portal to all federal, state and local government web resources and services.